Albuquerque, NM

2:24 PM MDT on August 27, 2015 (GMT -0600)
cazmo (Morris & Indian School) | | Change Station
CLOSE
Current Station
Personal Weather Station
Location: Albuquerque, NM
Elevation: 5525 ft
Nearby Weather Stations

Elev 5525 ft 35.10 °N, 106.53 °W | Updated 4 minutes ago

Scattered Clouds
Scattered Clouds
85.7 °F
Feels Like 85 °F
N
3.0
Wind Variable Wind from NNW
Gusts 7.0 mph

Today
High -- | Low -- °F
--% Chance of Precip.
Yesterday
High -- | Low -- °F
Precip. -- in
6:34 AM 7:39 PM
Waxing Gibbous, 95% visible
Pressure 29.99 in
Visibility 10.0 miles
Clouds Scattered Clouds 8000 ft
Scattered Clouds 11000 ft
Scattered Clouds 20000 ft
Heat Index 85 °F
Dew Point 56 °F
Humidity 37%
Rainfall 0.00 in
Snow Depth Not available.
UV 9 out of 12
Pollen 5.80 out of 12
Air Quality Not available.
Flu Activity Not available.
METAR KABQ 271952Z VRB04KT 10SM SCT080 SCT110 SCT200 28/12 A3024 RMK AO2 LTG DSNT W SLP155 SHRA DSNT W T02830117
Pressure 29.99 in
Visibility 10.0 miles
Clouds Scattered Clouds 8000 ft
Scattered Clouds 11000 ft
Scattered Clouds 20000 ft
Heat Index 85 °F
Dew Point 56 °F
Humidity 37%
Rainfall 0.00 in
Snow Depth Not available.
UV 9 out of 12
Pollen 5.80 out of 12
Air Quality Not available.
Flu Activity Not available.
METAR KABQ 271952Z VRB04KT 10SM SCT080 SCT110 SCT200 28/12 A3024 RMK AO2 LTG DSNT W SLP155 SHRA DSNT W T02830117

10-Day Weather Forecast

×

Almanac

Astronomy

Aug. 27, 2015 Rise Set
Actual Time
Civil Twilight
Nautical Twilight
Astronomical Twilight
Moon
Length of Visible Light
Length of Day
Tomorrow will be .
, % of the Moon is Illuminated

Today's Extremes

State Highs State Lows

Community

WunderPhotos

Upload Photos

1,850,206 photos uploaded!

WunderBlogs® & News

Nearby

Air Quality

  Air Quality AQ Index Pollutant
Not available.

Snow Depth

Station Depth Elevation

Earthquake Activity

City Distance Mag. Time & Date
Minimum magnitude displayed is 2.5.

Coastal Water Temperatures

Place Temperature

Stations

Nearby Weather Stations

Station Location Temp. Windchill Dew Point Humidity Wind Precip. Elev Updated Type